Time;durP1;ratioP1;P1;durP2;ratioP2;P2;SDS_P1;SDS_P2;PMS_P1;PMS_P2;Temp;Humidity;BMP_temperature;BMP_pressure;BME280_temperature;BME280_humidity;BME280_pressure;Samples;Min_cycle;Max_cycle;Signal;HPM_P1;HPM_P2
2022/01/19 00:02:18;;;;;;;12.70;6.67;;;6.50;99.90;;;;;;638749;218;26712;-73
2022/01/19 00:04:45;;;;;;;11.83;6.87;;;6.60;99.90;;;;;;641492;219;26564;-73
2022/01/19 00:07:12;;;;;;;9.37;7.00;;;6.70;99.90;;;;;;649467;221;26763;-73
2022/01/19 00:09:40;;;;;;;10.90;6.93;;;6.40;99.90;;;;;;643929;221;26563;-73
2022/01/19 00:12:07;;;;;;;15.83;7.10;;;6.20;99.90;;;;;;637936;224;27255;-73
2022/01/19 00:14:35;;;;;;;16.60;6.70;;;6.10;99.90;;;;;;643533;221;26958;-73
2022/01/19 00:17:02;;;;;;;10.63;6.67;;;6.50;99.90;;;;;;645137;222;26580;-73
2022/01/19 00:19:29;;;;;;;14.10;7.33;;;6.50;99.90;;;;;;637175;224;26790;-73
2022/01/19 00:21:56;;;;;;;11.60;6.83;;;6.30;99.90;;;;;;640179;222;26577;-73
2022/01/19 00:24:23;;;;;;;13.33;7.23;;;6.20;99.90;;;;;;640604;224;26758;-74
2022/01/19 00:26:51;;;;;;;12.60;7.23;;;6.40;99.90;;;;;;639359;222;26606;-73
2022/01/19 00:29:19;;;;;;;12.87;7.00;;;6.30;99.90;;;;;;642103;222;26576;-73
2022/01/19 00:31:47;;;;;;;11.27;6.60;;;6.50;99.90;;;;;;638426;224;26590;-73
2022/01/19 00:34:14;;;;;;;12.27;6.90;;;6.50;99.90;;;;;;642052;222;26760;-73
2022/01/19 00:36:41;;;;;;;12.13;7.10;;;6.40;99.90;;;;;;641870;222;26539;-73
2022/01/19 00:39:09;;;;;;;13.10;7.03;;;6.10;99.90;;;;;;641545;222;27258;-73
2022/01/19 00:41:36;;;;;;;10.93;6.97;;;6.20;99.90;;;;;;639813;223;26541;-73
2022/01/19 00:44:03;;;;;;;10.93;6.37;;;6.20;99.90;;;;;;627659;225;26788;-73
2022/01/19 00:46:31;;;;;;;10.90;7.30;;;5.90;99.90;;;;;;648950;221;26526;-74
2022/01/19 00:48:59;;;;;;;11.07;7.07;;;6.10;99.90;;;;;;638215;219;26601;-74
2022/01/19 00:51:27;;;;;;;10.13;6.97;;;6.30;99.90;;;;;;639044;222;26586;-73
2022/01/19 00:53:54;;;;;;;14.70;6.80;;;6.30;99.90;;;;;;641127;223;26541;-73
2022/01/19 00:56:21;;;;;;;13.90;7.23;;;6.10;99.90;;;;;;639281;223;26584;-73
2022/01/19 00:58:49;;;;;;;9.83;6.57;;;6.20;99.90;;;;;;645536;221;27337;-73
2022/01/19 01:01:16;;;;;;;13.80;7.33;;;6.10;99.90;;;;;;643191;221;26610;-73
2022/01/19 01:03:43;;;;;;;12.17;7.00;;;5.90;99.90;;;;;;639330;222;26939;-73
2022/01/19 01:06:11;;;;;;;10.13;6.13;;;6.10;99.90;;;;;;642857;222;26584;-73
2022/01/19 01:08:39;;;;;;;13.73;7.33;;;6.00;99.90;;;;;;642270;222;26584;-75
2022/01/19 01:11:06;;;;;;;13.83;6.97;;;6.00;99.90;;;;;;646064;222;26592;-73
2022/01/19 01:16:17;;;;;;;12.00;7.43;;;6.00;99.90;;;;;;639729;222;26593;-73
2022/01/19 01:18:35;;;;;;;12.07;7.10;;;6.30;99.90;;;;;;642175;222;26572;-73
2022/01/19 01:21:02;;;;;;;11.97;7.20;;;6.30;99.90;;;;;;638156;221;26588;-74
2022/01/19 01:23:29;;;;;;;13.60;7.47;;;6.30;99.90;;;;;;643376;222;26551;-74
2022/01/19 01:25:57;;;;;;;13.57;7.07;;;6.30;99.90;;;;;;642138;221;26607;-74
2022/01/19 01:28:24;;;;;;;13.90;7.30;;;6.30;99.90;;;;;;642153;221;26609;-74
2022/01/19 01:30:51;;;;;;;14.13;7.77;;;6.10;99.90;;;;;;637835;221;26586;-73
2022/01/19 01:33:18;;;;;;;12.30;8.00;;;5.80;99.90;;;;;;640749;221;26909;-74
2022/01/19 01:35:45;;;;;;;15.43;7.77;;;5.80;99.90;;;;;;637232;225;26569;-73
2022/01/19 01:38:12;;;;;;;16.33;8.27;;;5.70;99.90;;;;;;638369;224;26802;-73
2022/01/19 01:40:40;;;;;;;16.83;8.17;;;5.90;99.90;;;;;;644264;222;26581;-74
2022/01/19 01:43:08;;;;;;;17.27;9.07;;;6.00;99.90;;;;;;639807;222;26555;-74
2022/01/19 01:45:39;;;;;;;14.70;8.40;;;6.10;99.90;;;;;;642556;222;26575;-74
2022/01/19 01:48:11;;;;;;;22.67;9.97;;;6.10;99.90;;;;;;643165;222;26590;-74
2022/01/19 01:55:39;;;;;;;17.00;10.63;;;5.90;99.90;;;;;;643596;221;26567;-73
2022/01/19 01:58:07;;;;;;;18.23;10.13;;;6.00;99.90;;;;;;642604;221;26511;-74
2022/01/19 02:00:35;;;;;;;19.80;10.53;;;5.90;99.90;;;;;;640814;221;26614;-74
2022/01/19 02:03:02;;;;;;;21.27;11.03;;;5.90;99.90;;;;;;640663;222;26608;-75
2022/01/19 02:05:32;;;;;;;23.97;11.00;;;5.90;99.90;;;;;;639852;222;26472;-74
2022/01/19 02:08:05;;;;;;;25.07;11.53;;;5.80;99.90;;;;;;644484;222;26802;-74
2022/01/19 02:23:22;;;;;;;20.13;11.03;;;6.10;99.90;;;;;;642233;222;26579;-74
2022/01/19 02:25:48;;;;;;;19.23;10.80;;;6.10;99.90;;;;;;637270;225;26580;-74
2022/01/19 02:31:22;;;;;;;20.00;11.27;;;6.10;99.90;;;;;;637989;222;26595;-74
2022/01/19 02:40:56;;;;;;;18.90;11.03;;;6.10;99.90;;;;;;648039;221;26862;-74
2022/01/19 02:43:23;;;;;;;23.17;11.30;;;6.20;99.90;;;;;;637553;224;26581;-74
2022/01/19 02:50:54;;;;;;;19.03;9.73;;;6.20;99.90;;;;;;647347;221;26548;-74
2022/01/19 02:53:22;;;;;;;22.03;10.03;;;6.30;99.90;;;;;;637176;224;26579;-74
2022/01/19 02:55:50;;;;;;;17.90;10.50;;;6.30;99.90;;;;;;637537;222;26827;-74
2022/01/19 02:58:20;;;;;;;18.93;10.07;;;6.30;99.90;;;;;;637578;224;26614;-74
2022/01/19 03:10:55;;;;;;;14.67;9.47;;;6.60;99.90;;;;;;640629;222;26581;-75
2022/01/19 03:13:23;;;;;;;19.37;9.77;;;6.20;99.90;;;;;;643257;220;26805;-74
2022/01/19 03:15:50;;;;;;;18.10;9.83;;;6.20;99.90;;;;;;642547;221;26561;-75
2022/01/19 03:18:17;;;;;;;19.43;10.37;;;6.30;99.90;;;;;;641530;222;26572;-74
2022/01/19 03:20:45;;;;;;;16.70;10.13;;;6.40;99.90;;;;;;640158;221;26636;-74
2022/01/19 03:23:27;;;;;;;16.10;10.50;;;6.40;99.90;;;;;;640381;222;26519;-74
2022/01/19 03:25:56;;;;;;;18.77;9.23;;;6.40;99.90;;;;;;642986;222;26608;-74
2022/01/19 03:28:23;;;;;;;20.73;9.70;;;6.20;99.90;;;;;;642868;222;26613;-74
2022/01/19 03:30:50;;;;;;;16.07;9.20;;;6.40;99.90;;;;;;638866;222;26595;-74
2022/01/19 03:33:18;;;;;;;17.53;9.93;;;6.30;99.90;;;;;;640856;224;26576;-74
2022/01/19 03:35:45;;;;;;;18.40;10.50;;;6.20;99.90;;;;;;639644;223;26591;-74
2022/01/19 03:38:13;;;;;;;17.27;9.73;;;6.30;99.90;;;;;;640032;224;26556;-76
2022/01/19 03:40:41;;;;;;;16.03;10.57;;;6.10;99.90;;;;;;640809;224;26587;-77
2022/01/19 03:43:09;;;;;;;17.90;9.83;;;6.20;99.90;;;;;;640550;224;26516;-76
2022/01/19 03:45:36;;;;;;;20.20;11.80;;;6.20;99.90;;;;;;641181;222;26776;-77
2022/01/19 03:48:16;;;;;;;17.23;10.70;;;6.00;99.90;;;;;;637063;224;26766;-78
2022/01/19 03:50:33;;;;;;;18.30;11.60;;;6.10;99.90;;;;;;636349;222;26613;-76
2022/01/19 03:53:00;;;;;;;21.93;11.37;;;6.40;99.90;;;;;;639648;224;26563;-76
2022/01/19 03:55:28;;;;;;;18.57;11.27;;;6.40;99.90;;;;;;640673;224;26508;-76
2022/01/19 03:57:56;;;;;;;20.40;11.40;;;6.40;99.90;;;;;;640658;224;26525;-77
2022/01/19 04:00:24;;;;;;;16.03;10.87;;;6.50;99.90;;;;;;640658;224;26550;-77
2022/01/19 04:02:52;;;;;;;18.60;11.23;;;6.40;99.90;;;;;;641553;222;26525;-75
2022/01/19 04:05:26;;;;;;;18.80;10.87;;;6.50;99.90;;;;;;641242;221;26581;-74
2022/01/19 04:07:48;;;;;;;17.80;11.23;;;6.80;99.90;;;;;;639393;222;26893;-74
2022/01/19 04:10:16;;;;;;;19.03;11.20;;;6.90;99.90;;;;;;649063;221;26510;-75
2022/01/19 04:12:53;;;;;;;18.90;11.63;;;6.40;99.90;;;;;;639926;222;26788;-75
2022/01/19 04:15:14;;;;;;;21.73;11.07;;;6.40;99.90;;;;;;640094;224;26525;-75
2022/01/19 04:17:49;;;;;;;18.90;11.03;;;6.20;99.90;;;;;;640603;221;26598;-74
2022/01/19 04:20:11;;;;;;;16.17;10.87;;;6.00;99.90;;;;;;643722;221;26569;-76
2022/01/19 04:22:38;;;;;;;20.83;10.73;;;6.00;99.90;;;;;;638579;221;26578;-76
2022/01/19 04:25:07;;;;;;;23.13;11.30;;;5.90;99.90;;;;;;638095;222;26810;-75
2022/01/19 04:27:35;;;;;;;18.90;11.17;;;6.00;99.90;;;;;;645138;222;26515;-75
2022/01/19 04:30:08;;;;;;;18.50;11.87;;;6.00;99.90;;;;;;639825;222;26555;-76
2022/01/19 04:32:39;;;;;;;19.87;11.40;;;6.00;99.90;;;;;;638915;222;26535;-76
2022/01/19 04:35:02;;;;;;;18.33;10.47;;;6.20;99.90;;;;;;643498;222;26745;-75
2022/01/19 04:37:38;;;;;;;22.20;11.03;;;5.90;99.90;;;;;;644873;222;26580;-74
2022/01/19 04:45:38;;;;;;;17.03;11.70;;;6.20;99.90;;;;;;647757;222;26565;-74
2022/01/19 04:48:03;;;;;;;17.90;12.03;;;6.10;99.90;;;;;;645960;222;26771;-74
2022/01/19 05:05:36;;;;;;;20.07;12.97;;;5.90;99.90;;;;;;639302;221;26605;-75
2022/01/19 05:08:03;;;;;;;17.70;11.80;;;5.90;99.90;;;;;;646973;222;26777;-75
2022/01/19 05:15:30;;;;;;;20.33;14.07;;;5.70;99.90;;;;;;647355;222;26581;-75
2022/01/19 05:17:57;;;;;;;20.40;12.67;;;5.70;99.90;;;;;;647303;222;26824;-74
2022/01/19 05:20:24;;;;;;;25.00;13.03;;;5.70;99.90;;;;;;647278;222;26613;-74
2022/01/19 05:22:52;;;;;;;19.13;13.43;;;6.10;99.90;;;;;;647403;222;26824;-75
2022/01/19 05:25:19;;;;;;;26.80;13.07;;;6.30;99.90;;;;;;647447;222;26799;-75
2022/01/19 05:27:46;;;;;;;21.43;12.77;;;6.10;99.90;;;;;;647884;220;26561;-75
2022/01/19 05:30:14;;;;;;;20.13;12.97;;;6.20;99.90;;;;;;649056;221;26552;-75
2022/01/19 05:32:40;;;;;;;18.30;12.60;;;6.10;99.90;;;;;;648670;221;26772;-74
2022/01/19 05:35:08;;;;;;;22.30;13.33;;;5.70;99.90;;;;;;648397;221;26581;-74
2022/01/19 05:37:36;;;;;;;21.40;12.80;;;5.70;99.90;;;;;;648280;221;26584;-75
2022/01/19 05:40:06;;;;;;;21.03;13.53;;;5.80;99.90;;;;;;647959;222;26804;-75
2022/01/19 05:42:34;;;;;;;18.07;13.27;;;5.70;99.90;;;;;;648101;222;26577;-75
2022/01/19 05:45:01;;;;;;;21.20;12.93;;;5.70;99.90;;;;;;648049;222;26791;-75
2022/01/19 05:47:28;;;;;;;19.27;13.53;;;5.70;99.90;;;;;;647655;221;26566;-75
2022/01/19 05:49:55;;;;;;;18.60;13.17;;;5.70;99.90;;;;;;647592;222;26813;-74
2022/01/19 05:52:22;;;;;;;17.57;13.37;;;5.60;99.90;;;;;;647619;222;26596;-75
2022/01/19 05:54:50;;;;;;;20.43;12.87;;;5.80;99.90;;;;;;647647;222;26997;-74
2022/01/19 05:57:18;;;;;;;20.43;14.27;;;5.80;99.90;;;;;;647740;222;26584;-75
2022/01/19 05:59:46;;;;;;;18.67;13.90;;;5.70;99.90;;;;;;647720;222;26582;-75
2022/01/19 06:02:14;;;;;;;20.87;13.97;;;5.70;99.90;;;;;;647686;222;26593;-75
2022/01/19 06:04:41;;;;;;;22.13;13.70;;;5.70;99.90;;;;;;647596;222;26577;-72
2022/01/19 06:07:09;;;;;;;18.97;12.90;;;5.70;99.90;;;;;;647407;222;26573;-73
2022/01/19 06:09:50;;;;;;;21.07;14.20;;;5.80;99.90;;;;;;647332;222;26606;-72
2022/01/19 06:12:04;;;;;;;22.00;14.53;;;5.70;99.90;;;;;;644081;222;26823;-73
2022/01/19 06:14:31;;;;;;;23.83;14.30;;;6.00;99.90;;;;;;641059;224;26504;-72
2022/01/19 06:16:58;;;;;;;24.07;15.10;;;5.90;99.90;;;;;;641109;224;26768;-73
2022/01/19 06:19:25;;;;;;;25.37;15.27;;;5.90;99.90;;;;;;641196;224;26485;-72
2022/01/19 06:21:52;;;;;;;22.63;15.03;;;5.90;99.90;;;;;;641102;224;26787;-73
2022/01/19 06:24:19;;;;;;;24.13;14.63;;;6.00;99.90;;;;;;641177;224;26541;-73
2022/01/19 06:26:47;;;;;;;25.40;15.00;;;6.00;99.90;;;;;;640887;224;26879;-73
2022/01/19 06:29:14;;;;;;;23.70;15.07;;;6.10;99.90;;;;;;640732;224;26509;-73
2022/01/19 06:31:41;;;;;;;18.97;13.93;;;6.00;99.90;;;;;;640737;224;26835;-73
2022/01/19 06:34:09;;;;;;;21.07;14.07;;;5.70;99.90;;;;;;640671;224;26500;-73
2022/01/19 06:36:37;;;;;;;22.37;14.97;;;5.50;99.90;;;;;;640735;224;26520;-73
2022/01/19 06:39:05;;;;;;;23.90;15.77;;;5.40;99.90;;;;;;641142;222;26500;-73
2022/01/19 06:41:33;;;;;;;19.60;14.37;;;5.40;99.90;;;;;;642485;223;26586;-73
2022/01/19 06:44:00;;;;;;;23.07;15.20;;;5.40;99.90;;;;;;642057;224;26575;-73
2022/01/19 06:46:27;;;;;;;21.93;15.20;;;5.50;99.90;;;;;;641735;224;26572;-73
2022/01/19 06:48:55;;;;;;;22.03;15.60;;;5.60;99.90;;;;;;641534;219;26827;-73
2022/01/19 06:51:22;;;;;;;20.73;14.50;;;5.50;99.90;;;;;;641434;221;26539;-73
2022/01/19 06:53:49;;;;;;;20.37;14.83;;;5.50;99.90;;;;;;630593;224;26730;-73
2022/01/19 06:56:16;;;;;;;25.97;15.60;;;5.50;99.90;;;;;;641514;224;26525;-73
2022/01/19 06:58:43;;;;;;;25.47;15.33;;;5.30;99.90;;;;;;641227;224;26778;-73
2022/01/19 07:01:11;;;;;;;26.37;15.80;;;5.50;99.90;;;;;;641156;224;26603;-73
2022/01/19 07:03:38;;;;;;;26.07;15.20;;;5.50;99.90;;;;;;641173;223;26793;-73
2022/01/19 07:06:07;;;;;;;25.77;15.97;;;5.50;99.90;;;;;;641203;223;26590;-73
2022/01/19 07:08:32;;;;;;;22.03;15.20;;;5.50;99.90;;;;;;641260;224;27350;-73
2022/01/19 07:11:00;;;;;;;23.67;14.37;;;5.50;99.90;;;;;;641158;223;26567;-74
2022/01/19 07:13:28;;;;;;;26.57;15.47;;;5.60;99.90;;;;;;641164;224;26592;-73
2022/01/19 07:15:56;;;;;;;26.07;14.67;;;5.30;99.90;;;;;;640948;223;26579;-74
2022/01/19 07:18:24;;;;;;;23.93;14.17;;;5.30;99.90;;;;;;640692;224;26524;-74
2022/01/19 07:20:51;;;;;;;20.27;13.30;;;5.30;99.90;;;;;;640771;222;26543;-74
2022/01/19 07:23:18;;;;;;;24.43;12.83;;;5.30;99.90;;;;;;640780;224;26520;-74
2022/01/19 07:25:46;;;;;;;20.97;13.00;;;5.40;99.90;;;;;;640729;224;26532;-73
2022/01/19 07:28:13;;;;;;;22.03;13.33;;;5.60;99.90;;;;;;640756;224;26773;-73
2022/01/19 07:30:40;;;;;;;18.63;11.47;;;5.60;99.90;;;;;;640705;224;26806;-74
2022/01/19 07:33:07;;;;;;;16.03;10.17;;;5.60;99.90;;;;;;640766;224;26520;-73
2022/01/19 07:35:34;;;;;;;17.53;11.37;;;5.40;99.90;;;;;;640723;224;26826;-76
2022/01/19 07:38:02;;;;;;;19.53;10.43;;;5.70;99.90;;;;;;640753;224;26595;-73
2022/01/19 07:40:29;;;;;;;19.93;10.80;;;5.50;99.90;;;;;;640597;224;26941;-74
2022/01/19 07:42:56;;;;;;;20.90;11.10;;;5.60;99.90;;;;;;640577;224;26512;-73
2022/01/19 07:45:23;;;;;;;25.93;10.27;;;5.60;99.90;;;;;;640980;222;26914;-73
2022/01/19 07:47:50;;;;;;;22.07;9.83;;;5.50;99.90;;;;;;646032;221;26507;-73
2022/01/19 07:50:18;;;;;;;19.40;10.80;;;5.40;99.90;;;;;;641924;221;26564;-73
2022/01/19 07:52:46;;;;;;;20.03;9.53;;;5.50;99.90;;;;;;644020;220;26534;-73
2022/01/19 07:55:13;;;;;;;23.67;10.00;;;5.60;99.90;;;;;;641920;222;26526;-73
2022/01/19 07:57:45;;;;;;;26.87;11.00;;;5.60;99.90;;;;;;640544;221;26584;-73
2022/01/19 08:00:08;;;;;;;22.07;10.00;;;5.60;99.90;;;;;;639908;221;26789;-74
2022/01/19 08:02:36;;;;;;;21.83;9.73;;;5.70;99.90;;;;;;642930;221;26488;-74
2022/01/19 08:05:04;;;;;;;16.50;9.73;;;5.40;99.90;;;;;;638012;225;26484;-80
2022/01/19 08:07:33;;;;;;;20.93;10.10;;;5.40;99.90;;;;;;638008;225;26512;-78
2022/01/19 08:09:59;;;;;;;20.10;9.23;;;5.40;99.90;;;;;;637653;225;26571;-78
2022/01/19 08:12:27;;;;;;;21.10;9.53;;;5.40;99.90;;;;;;640177;219;26613;-80
2022/01/19 08:14:55;;;;;;;27.77;10.67;;;5.30;99.90;;;;;;640952;223;26544;-79
2022/01/19 08:17:22;;;;;;;20.13;9.13;;;5.50;99.90;;;;;;639316;223;26587;-78
2022/01/19 08:19:50;;;;;;;39.37;11.53;;;5.40;99.90;;;;;;640112;224;26878;-79
2022/01/19 08:22:17;;;;;;;25.03;9.03;;;5.50;99.90;;;;;;640855;221;26626;-79
2022/01/19 08:24:45;;;;;;;18.80;8.90;;;5.40;99.90;;;;;;639158;223;26789;-80
2022/01/19 08:27:13;;;;;;;18.40;9.50;;;5.30;99.90;;;;;;644133;222;26851;-78
2022/01/19 08:29:40;;;;;;;19.13;10.20;;;5.20;99.90;;;;;;649395;221;27279;-79
2022/01/19 08:32:09;;;;;;;20.03;10.00;;;5.20;99.90;;;;;;649468;221;26769;-79
2022/01/19 08:34:36;;;;;;;16.67;9.33;;;5.30;99.90;;;;;;649504;221;26695;-81
2022/01/19 08:37:04;;;;;;;20.07;9.30;;;5.30;99.90;;;;;;649559;221;26577;-79
2022/01/19 08:39:31;;;;;;;19.33;9.07;;;5.10;99.90;;;;;;649504;221;26585;-80
2022/01/19 08:41:59;;;;;;;19.53;9.03;;;5.00;99.90;;;;;;649584;221;26605;-78
2022/01/19 08:44:27;;;;;;;15.40;9.27;;;4.90;99.90;;;;;;644514;221;26558;-74
2022/01/19 08:46:54;;;;;;;15.33;9.03;;;4.90;99.90;;;;;;640365;222;26574;-75
2022/01/19 08:49:21;;;;;;;20.13;8.30;;;4.80;99.90;;;;;;647400;222;26523;-74
2022/01/19 08:51:48;;;;;;;22.07;9.00;;;4.80;99.90;;;;;;640414;222;26874;-74
2022/01/19 08:54:15;;;;;;;20.80;9.60;;;5.00;99.90;;;;;;643329;221;26564;-74
2022/01/19 08:56:43;;;;;;;11.97;8.90;;;5.00;99.90;;;;;;643209;222;26811;-74
2022/01/19 08:59:11;;;;;;;14.73;8.63;;;4.90;99.90;;;;;;639303;224;26524;-75
2022/01/19 09:01:42;;;;;;;23.47;9.50;;;4.90;99.90;;;;;;639912;224;26556;-75
2022/01/19 09:04:09;;;;;;;15.20;8.93;;;5.00;99.90;;;;;;639355;223;26985;-75
2022/01/19 09:06:37;;;;;;;15.33;9.03;;;5.20;99.90;;;;;;647054;221;26534;-75
2022/01/19 09:09:06;;;;;;;14.13;8.67;;;5.10;99.90;;;;;;643063;221;26573;-74
2022/01/19 09:11:33;;;;;;;14.17;9.30;;;5.00;99.90;;;;;;649100;221;26791;-75
2022/01/19 09:14:02;;;;;;;12.53;8.63;;;5.10;99.90;;;;;;646061;221;26571;-74
2022/01/19 09:16:27;;;;;;;17.83;8.10;;;5.00;99.90;;;;;;643454;221;26868;-75
2022/01/19 09:18:55;;;;;;;16.43;9.03;;;5.10;99.90;;;;;;646453;221;26505;-74
2022/01/19 09:21:23;;;;;;;14.20;8.93;;;5.20;99.90;;;;;;649242;221;26577;-75
2022/01/19 09:23:51;;;;;;;17.57;9.57;;;5.20;99.90;;;;;;640702;217;26571;-74
2022/01/19 09:26:18;;;;;;;12.90;9.07;;;5.20;99.90;;;;;;647172;221;26764;-74
2022/01/19 09:28:45;;;;;;;17.97;9.47;;;5.20;99.90;;;;;;640492;219;26844;-74
2022/01/19 09:31:15;;;;;;;13.57;9.40;;;5.10;99.90;;;;;;641429;221;26548;-74
2022/01/19 09:33:41;;;;;;;14.90;10.20;;;5.10;99.90;;;;;;643581;221;26575;-77
2022/01/19 09:36:28;;;;;;;13.70;9.87;;;4.90;99.90;;;;;;641504;222;26529;-77
2022/01/19 09:38:34;;;;;;;16.43;10.60;;;4.80;99.90;;;;;;641960;221;26922;-73
2022/01/19 09:41:01;;;;;;;12.67;9.23;;;4.90;99.90;;;;;;639873;222;26580;-72
2022/01/19 09:43:29;;;;;;;15.43;11.00;;;4.90;99.90;;;;;;640882;222;26875;-72
2022/01/19 09:45:57;;;;;;;15.90;9.77;;;5.10;99.90;;;;;;642333;221;27170;-73
2022/01/19 09:48:24;;;;;;;14.60;9.00;;;5.10;99.90;;;;;;643206;221;26845;-72
2022/01/19 09:50:53;;;;;;;14.53;9.73;;;5.30;99.90;;;;;;643944;221;26577;-73
2022/01/19 09:53:20;;;;;;;14.27;9.87;;;5.40;99.90;;;;;;638696;224;26576;-73
2022/01/19 09:55:47;;;;;;;14.50;10.30;;;5.40;99.90;;;;;;643450;222;26575;-73
2022/01/19 09:58:16;;;;;;;12.17;10.27;;;5.30;99.90;;;;;;641903;222;26520;-72
2022/01/19 10:00:41;;;;;;;13.37;10.03;;;5.20;99.90;;;;;;640551;221;26777;-72
2022/01/19 10:03:12;;;;;;;17.30;9.90;;;5.20;99.90;;;;;;639513;224;26570;-72
2022/01/19 10:06:02;;;;;;;17.57;10.63;;;5.20;99.90;;;;;;639035;224;26569;-72
2022/01/19 10:08:32;;;;;;;15.30;10.80;;;5.20;99.90;;;;;;645722;222;26578;-72
2022/01/19 10:11:08;;;;;;;15.70;10.13;;;5.30;99.90;;;;;;637144;225;26598;-72
2022/01/19 10:18:43;;;;;;;16.57;10.07;;;5.30;99.90;;;;;;650399;220;26504;-72
2022/01/19 10:21:13;;;;;;;13.57;9.83;;;5.30;99.90;;;;;;641607;224;26573;-72
2022/01/19 10:23:39;;;;;;;15.13;10.63;;;5.20;99.90;;;;;;644980;222;26523;-72
2022/01/19 10:26:07;;;;;;;15.73;10.47;;;5.30;99.90;;;;;;642994;222;26800;-72
2022/01/19 10:28:46;;;;;;;12.27;10.53;;;5.30;99.90;;;;;;641197;222;26772;-72
2022/01/19 10:31:16;;;;;;;13.77;10.20;;;5.20;99.90;;;;;;640011;223;26605;-72
2022/01/19 10:33:42;;;;;;;16.20;11.60;;;5.20;99.90;;;;;;639620;224;26802;-72
2022/01/19 10:36:09;;;;;;;12.67;10.87;;;5.20;99.90;;;;;;646295;222;26575;-72
2022/01/19 10:38:38;;;;;;;14.60;11.13;;;5.30;99.90;;;;;;643563;222;26801;-72
2022/01/19 10:41:05;;;;;;;13.50;11.67;;;5.90;99.90;;;;;;638683;224;26579;-72
2022/01/19 10:43:39;;;;;;;14.20;12.70;;;5.80;99.90;;;;;;640936;223;26560;-71
2022/01/19 10:46:31;;;;;;;19.63;12.63;;;5.80;99.90;;;;;;641000;224;26582;-71
2022/01/19 10:49:03;;;;;;;17.23;12.90;;;5.90;99.90;;;;;;644594;222;26573;-71
2022/01/19 10:51:31;;;;;;;17.30;13.43;;;5.90;99.90;;;;;;639078;224;26819;-71
2022/01/19 10:54:07;;;;;;;19.07;12.30;;;6.40;99.90;;;;;;640642;224;26528;-72
2022/01/19 10:56:35;;;;;;;17.03;13.23;;;6.40;99.90;;;;;;640555;224;26819;-71
2022/01/19 10:59:04;;;;;;;19.77;13.53;;;6.30;99.90;;;;;;639492;224;26510;-71
2022/01/19 11:01:43;;;;;;;14.80;13.30;;;6.40;99.90;;;;;;637450;224;26645;-72
2022/01/19 11:04:18;;;;;;;16.57;13.90;;;6.70;99.90;;;;;;639950;224;26826;-71
2022/01/19 11:06:45;;;;;;;16.13;13.83;;;7.00;99.90;;;;;;647991;221;26818;-72
2022/01/19 11:09:14;;;;;;;16.97;14.83;;;6.90;99.90;;;;;;638564;224;26577;-72
2022/01/19 11:11:39;;;;;;;18.33;15.47;;;7.10;99.90;;;;;;638501;224;26833;-72
2022/01/19 11:14:08;;;;;;;16.03;13.77;;;7.10;99.90;;;;;;637174;224;26568;-72
2022/01/19 11:16:34;;;;;;;16.10;13.50;;;6.90;99.90;;;;;;638411;222;26851;-72
2022/01/19 11:19:01;;;;;;;21.43;14.27;;;6.80;99.90;;;;;;644150;222;26577;-72
2022/01/19 11:21:28;;;;;;;16.13;13.70;;;7.00;99.90;;;;;;637266;222;26899;-72
2022/01/19 11:24:12;;;;;;;17.63;14.33;;;7.10;99.90;;;;;;637116;224;26575;-72
2022/01/19 11:26:39;;;;;;;14.63;13.10;;;6.90;99.90;;;;;;643105;219;26595;-72
2022/01/19 11:29:18;;;;;;;15.60;13.40;;;7.10;99.90;;;;;;643136;221;26481;-72
2022/01/19 11:31:43;;;;;;;15.10;13.47;;;7.20;99.90;;;;;;645443;221;27279;-73
2022/01/19 11:34:11;;;;;;;14.60;13.10;;;7.20;99.90;;;;;;646628;222;26549;-73
2022/01/19 11:36:42;;;;;;;17.80;13.80;;;7.00;99.90;;;;;;638806;222;26519;-72
2022/01/19 11:39:11;;;;;;;16.80;13.33;;;7.60;99.90;;;;;;644379;222;26523;-71
2022/01/19 11:41:39;;;;;;;16.90;15.10;;;7.50;99.90;;;;;;639827;221;26575;-74
2022/01/19 11:44:07;;;;;;;18.60;16.10;;;7.20;99.90;;;;;;638632;224;26572;-75
2022/01/19 11:46:36;;;;;;;18.43;16.17;;;7.20;99.90;;;;;;648235;221;26565;-76
2022/01/19 11:49:03;;;;;;;18.50;16.33;;;7.20;99.90;;;;;;638610;224;26585;-75
2022/01/19 11:51:32;;;;;;;18.83;15.67;;;6.70;99.90;;;;;;639308;221;26597;-75
2022/01/19 11:54:10;;;;;;;20.40;16.17;;;6.70;99.90;;;;;;640770;222;26878;-76
2022/01/19 11:57:02;;;;;;;18.73;16.00;;;6.30;99.90;;;;;;638187;224;26564;-77
2022/01/19 11:59:30;;;;;;;17.73;15.80;;;6.00;99.90;;;;;;631754;223;26559;-75
2022/01/19 12:02:08;;;;;;;17.43;15.53;;;6.10;99.90;;;;;;643771;222;26558;-75
2022/01/19 12:04:36;;;;;;;20.93;17.17;;;5.70;99.90;;;;;;638106;222;26540;-75
2022/01/19 12:07:04;;;;;;;20.70;15.97;;;5.90;99.90;;;;;;639456;224;26588;-75
2022/01/19 12:09:32;;;;;;;17.93;14.63;;;6.40;99.90;;;;;;634235;226;26564;-75
2022/01/19 12:12:12;;;;;;;16.43;14.37;;;6.10;99.90;;;;;;636757;224;26544;-75
2022/01/19 12:14:40;;;;;;;19.23;14.77;;;6.50;99.90;;;;;;647255;222;26580;-75
2022/01/19 12:17:14;;;;;;;15.17;13.57;;;6.30;99.90;;;;;;648295;221;26554;-74
2022/01/19 12:19:38;;;;;;;40.43;16.57;;;6.30;99.90;;;;;;644308;221;26576;-75
2022/01/19 12:22:06;;;;;;;16.53;13.07;;;5.80;99.90;;;;;;640434;221;26552;-75
2022/01/19 12:24:37;;;;;;;16.67;13.37;;;5.80;99.90;;;;;;637423;224;26805;-75
2022/01/19 12:27:27;;;;;;;15.33;13.47;;;5.60;99.90;;;;;;639298;224;26848;-75
2022/01/19 12:30:08;;;;;;;17.17;14.93;;;5.40;99.90;;;;;;638951;224;26858;-75
2022/01/19 12:32:50;;;;;;;16.63;14.47;;;5.30;99.90;;;;;;640145;222;26545;-75
2022/01/19 12:35:34;;;;;;;16.87;13.67;;;5.30;99.90;;;;;;637591;219;26565;-75
2022/01/19 12:38:00;;;;;;;17.53;14.60;;;5.30;99.90;;;;;;639162;222;26561;-75
2022/01/19 12:40:32;;;;;;;18.60;13.97;;;5.00;99.90;;;;;;647200;221;26818;-75
2022/01/19 12:42:57;;;;;;;19.23;14.77;;;4.90;99.90;;;;;;641695;224;26892;-75
2022/01/19 12:45:35;;;;;;;16.23;14.53;;;4.80;99.90;;;;;;640021;223;26590;-75
2022/01/19 12:48:04;;;;;;;18.67;15.10;;;4.80;99.90;;;;;;640623;224;26572;-75
2022/01/19 12:50:33;;;;;;;17.47;14.67;;;4.90;99.90;;;;;;647524;222;26783;-75
2022/01/19 12:53:01;;;;;;;17.27;13.43;;;4.90;99.90;;;;;;644676;222;26491;-75
2022/01/19 12:55:29;;;;;;;17.70;15.53;;;5.00;99.90;;;;;;637377;225;26515;-75
2022/01/19 12:57:56;;;;;;;18.87;15.67;;;4.90;99.90;;;;;;639790;224;26794;-75
2022/01/19 13:00:28;;;;;;;16.97;15.27;;;5.40;99.90;;;;;;644116;222;26615;-75
2022/01/19 13:02:57;;;;;;;16.77;14.77;;;5.60;99.90;;;;;;644854;222;26566;-75
2022/01/19 13:05:24;;;;;;;17.80;16.00;;;5.70;99.90;;;;;;637475;224;26567;-74
2022/01/19 13:07:54;;;;;;;18.33;15.20;;;5.70;99.90;;;;;;637502;222;26556;-74
2022/01/19 13:10:34;;;;;;;18.27;14.97;;;5.40;99.90;;;;;;640265;219;26790;-75
2022/01/19 13:12:58;;;;;;;17.07;15.37;;;5.50;99.90;;;;;;639506;224;26585;-74
2022/01/19 13:15:24;;;;;;;18.20;16.30;;;5.10;99.90;;;;;;638710;219;26561;-74
2022/01/19 13:17:51;;;;;;;18.63;16.37;;;4.70;99.90;;;;;;638378;224;26559;-74
2022/01/19 13:20:20;;;;;;;18.87;16.87;;;4.70;99.90;;;;;;637252;224;26563;-75
2022/01/19 13:22:47;;;;;;;19.33;17.33;;;4.60;99.90;;;;;;640671;224;26523;-74
2022/01/19 13:25:14;;;;;;;19.77;17.37;;;4.90;99.90;;;;;;639271;224;27196;-74
2022/01/19 13:27:41;;;;;;;18.13;16.23;;;5.10;99.90;;;;;;637253;224;26605;-74
2022/01/19 13:30:11;;;;;;;19.23;16.67;;;5.00;99.90;;;;;;639940;224;26784;-75
2022/01/19 13:32:39;;;;;;;18.27;16.37;;;5.00;99.90;;;;;;640783;224;26500;-74
2022/01/19 13:35:06;;;;;;;20.97;18.83;;;4.80;99.90;;;;;;639548;224;27146;-74
2022/01/19 13:37:38;;;;;;;18.87;16.97;;;4.60;99.90;;;;;;637327;224;26590;-74
2022/01/19 13:40:10;;;;;;;20.20;17.50;;;4.80;99.90;;;;;;639858;224;26754;-74
2022/01/19 13:42:45;;;;;;;17.53;15.73;;;4.60;99.90;;;;;;640240;224;26532;-74
2022/01/19 13:45:19;;;;;;;16.67;14.87;;;4.50;99.90;;;;;;637277;223;26587;-74
2022/01/19 13:47:54;;;;;;;22.03;15.80;;;4.50;99.90;;;;;;636953;223;26570;-74
2022/01/19 13:50:17;;;;;;;20.23;14.10;;;4.50;99.90;;;;;;646868;220;26573;-74
2022/01/19 13:52:44;;;;;;;13.93;12.57;;;4.30;99.90;;;;;;638584;223;26761;-74
2022/01/19 13:55:17;;;;;;;15.93;13.00;;;4.20;99.90;;;;;;639508;222;26581;-74
2022/01/19 13:57:44;;;;;;;13.40;12.13;;;4.20;99.90;;;;;;645631;222;26568;-74
2022/01/19 14:00:12;;;;;;;14.53;13.03;;;4.20;99.90;;;;;;642836;221;26513;-74
2022/01/19 14:02:39;;;;;;;15.50;13.10;;;4.60;99.90;;;;;;639613;221;26514;-74
2022/01/19 14:05:07;;;;;;;12.77;11.47;;;4.60;99.90;;;;;;645657;222;26597;-74